San Francisco, California
Traffic Map
Current Weather Conditions
San Francisco, California
Scattered Clouds
Scattered Clouds
59°
Feels Like: 59°
Wind Chill: 59° Ceiling: Unl
Heat Index: 59° Visibility: 10mi
Dew Point: 47° Wind: 3mph
Humidity: 64% Direction: 30° (NNE)
Pressure: 30.01in Gusts: 0mph
Raw Report DataKSFO 221556Z 03003KT 10SM SCT200 15/08 A3001 RMK AO2 SLP162 T01500083
Traffic Incident Summary
Active as of:
Severity:
Category:
InformationThere was an issue retrieving the traffic information for this location. Please try a different location or try again shortly.
Advertisements